Time;durP1;ratioP1;P1;durP2;ratioP2;P2;SDS_P1;SDS_P2;PMS_P1;PMS_P2;Temp;Humidity;BMP_temperature;BMP_pressure;BME280_temperature;BME280_humidity;BME280_pressure;Samples;Min_cycle;Max_cycle;Signal;HPM_P1;HPM_P2
2021/09/02 00:02:14;;;;;;;12.30;9.93;;;10.10;99.90;;;;;;5075558;28;20128;-88
2021/09/02 00:04:41;;;;;;;16.27;10.18;;;10.10;99.90;;;;;;5056941;28;20055;-89
2021/09/02 00:07:08;;;;;;;13.18;10.27;;;10.20;99.90;;;;;;5056746;28;20059;-88
2021/09/02 00:09:35;;;;;;;12.48;9.75;;;10.20;99.90;;;;;;5057380;28;20052;-89
2021/09/02 00:12:01;;;;;;;14.30;9.77;;;10.30;99.90;;;;;;5074748;28;20052;-88
2021/09/02 00:14:29;;;;;;;13.10;9.82;;;10.20;99.90;;;;;;5056953;28;20059;-89
2021/09/02 00:16:55;;;;;;;12.43;9.57;;;10.20;99.90;;;;;;5074532;28;20048;-88
2021/09/02 00:19:22;;;;;;;15.52;9.38;;;10.20;99.90;;;;;;5057380;28;20095;-88
2021/09/02 00:21:49;;;;;;;12.18;9.13;;;10.10;99.90;;;;;;5057208;28;20048;-89
2021/09/02 00:24:16;;;;;;;15.05;9.27;;;10.20;99.90;;;;;;5057276;28;20127;-88
2021/09/02 00:26:43;;;;;;;11.70;9.18;;;10.00;99.90;;;;;;5056767;28;20130;-88
2021/09/02 00:29:10;;;;;;;10.73;8.95;;;10.10;99.90;;;;;;5056548;28;20056;-89
2021/09/02 00:31:37;;;;;;;15.32;9.52;;;10.10;99.90;;;;;;5074186;28;20056;-89
2021/09/02 00:34:04;;;;;;;14.02;11.05;;;10.10;99.90;;;;;;5056864;28;20404;-89
2021/09/02 00:36:30;;;;;;;14.98;10.77;;;10.20;99.90;;;;;;5056330;28;20048;-88
2021/09/02 00:38:57;;;;;;;17.70;9.80;;;10.20;99.90;;;;;;5056591;28;20051;-89
2021/09/02 00:41:24;;;;;;;10.82;8.77;;;10.10;99.90;;;;;;5056750;28;20059;-89
2021/09/02 00:43:51;;;;;;;13.00;9.10;;;10.10;99.90;;;;;;5056554;28;20080;-89
2021/09/02 00:46:18;;;;;;;10.75;8.95;;;10.00;99.90;;;;;;5056712;28;20048;-89
2021/09/02 00:48:47;;;;;;;14.82;10.07;;;9.90;99.90;;;;;;5056718;28;20440;-89
2021/09/02 00:51:16;;;;;;;16.83;10.20;;;9.90;99.90;;;;;;5056604;28;20056;-89
2021/09/02 00:53:50;;;;;;;11.52;9.80;;;10.00;99.90;;;;;;5073932;28;20059;-89
2021/09/02 00:56:18;;;;;;;17.25;11.13;;;10.10;99.90;;;;;;5073768;28;20058;-88
2021/09/02 00:58:47;;;;;;;13.95;9.63;;;10.10;99.90;;;;;;5056412;28;20071;-88
2021/09/02 01:01:16;;;;;;;18.83;11.32;;;10.10;99.90;;;;;;5056457;28;20055;-88
2021/09/02 01:03:45;;;;;;;12.38;9.93;;;10.20;99.90;;;;;;5056673;28;20139;-88
2021/09/02 01:06:13;;;;;;;18.08;9.95;;;10.20;99.90;;;;;;5073784;28;20044;-89
2021/09/02 01:08:41;;;;;;;16.95;9.57;;;10.20;99.90;;;;;;5056347;28;20101;-88
2021/09/02 01:11:08;;;;;;;10.77;8.43;;;10.20;99.90;;;;;;5073834;28;20055;-88
2021/09/02 01:13:34;;;;;;;12.75;9.52;;;10.20;99.90;;;;;;5056319;28;20047;-88
2021/09/02 01:16:01;;;;;;;17.95;10.82;;;10.30;99.90;;;;;;5056262;28;20044;-89
2021/09/02 01:18:28;;;;;;;13.55;9.35;;;10.20;99.90;;;;;;5072945;28;20168;-88
2021/09/02 01:20:55;;;;;;;13.85;10.00;;;10.20;99.90;;;;;;5073054;28;20056;-89
2021/09/02 01:23:22;;;;;;;12.60;10.07;;;10.20;99.90;;;;;;5073134;28;20049;-89
2021/09/02 01:25:49;;;;;;;12.95;10.25;;;10.20;99.90;;;;;;5073222;28;20054;-89
2021/09/02 01:28:17;;;;;;;14.60;9.73;;;10.20;99.90;;;;;;5073642;28;20056;-89
2021/09/02 01:30:44;;;;;;;12.52;10.02;;;10.30;99.90;;;;;;5055651;28;20074;-88
2021/09/02 01:33:16;;;;;;;14.38;9.63;;;10.30;99.90;;;;;;5056087;28;20083;-89
2021/09/02 01:35:43;;;;;;;12.45;8.93;;;10.40;99.90;;;;;;5055706;28;20048;-89
2021/09/02 01:38:11;;;;;;;14.55;9.75;;;10.40;99.90;;;;;;5055818;28;20044;-89
2021/09/02 01:40:47;;;;;;;14.63;8.98;;;10.40;99.90;;;;;;5055912;28;20052;-88
2021/09/02 01:43:16;;;;;;;14.00;9.05;;;10.30;99.90;;;;;;5056364;28;20044;-88
2021/09/02 01:45:43;;;;;;;11.25;8.25;;;10.30;99.90;;;;;;5055828;28;20416;-89
2021/09/02 01:48:10;;;;;;;10.35;8.60;;;10.20;99.90;;;;;;5055752;28;20076;-89
2021/09/02 01:50:42;;;;;;;15.30;9.02;;;10.20;99.90;;;;;;5055700;28;20059;-88
2021/09/02 01:53:13;;;;;;;12.18;9.05;;;10.30;99.90;;;;;;5056120;28;20053;-89
2021/09/02 01:55:42;;;;;;;11.35;9.00;;;10.30;99.90;;;;;;5055837;28;20086;-89
2021/09/02 01:58:08;;;;;;;13.82;8.52;;;10.30;99.90;;;;;;5073505;28;20075;-89
2021/09/02 02:00:36;;;;;;;11.52;9.27;;;10.20;99.90;;;;;;5055539;28;20063;-89
2021/09/02 02:03:04;;;;;;;13.70;10.15;;;10.20;99.90;;;;;;5055638;28;20483;-89
2021/09/02 02:05:32;;;;;;;11.73;8.98;;;10.20;99.90;;;;;;5072445;28;20412;-90
2021/09/02 02:07:59;;;;;;;10.43;8.68;;;10.20;99.90;;;;;;5072780;28;20049;-89
2021/09/02 02:10:26;;;;;;;13.48;7.85;;;10.10;99.90;;;;;;5072769;28;20044;-89
2021/09/02 02:12:59;;;;;;;11.13;8.05;;;10.00;99.90;;;;;;5055433;28;20052;-89
2021/09/02 02:15:27;;;;;;;10.55;8.70;;;9.90;99.90;;;;;;5055407;28;20048;-89
2021/09/02 02:17:55;;;;;;;13.95;9.80;;;9.90;99.90;;;;;;5073186;28;20080;-89
2021/09/02 02:20:22;;;;;;;18.73;9.50;;;9.80;99.90;;;;;;5055519;28;20048;-89
2021/09/02 02:22:49;;;;;;;12.55;9.43;;;9.80;99.90;;;;;;5055394;28;20057;-89
2021/09/02 02:25:16;;;;;;;14.27;9.30;;;9.80;99.90;;;;;;5055558;28;20480;-89
2021/09/02 02:27:44;;;;;;;12.77;9.20;;;9.90;99.90;;;;;;5055181;28;20048;-88
2021/09/02 02:30:16;;;;;;;13.30;9.05;;;9.90;99.90;;;;;;5057656;28;20056;-88
2021/09/02 02:32:43;;;;;;;13.20;8.88;;;9.90;99.90;;;;;;5058820;28;20131;-89
2021/09/02 02:35:10;;;;;;;10.13;8.38;;;9.80;99.90;;;;;;5059523;28;20135;-89
2021/09/02 02:37:38;;;;;;;9.90;8.23;;;9.80;99.90;;;;;;5059289;28;20063;-88
2021/09/02 02:40:06;;;;;;;13.20;8.60;;;9.80;99.90;;;;;;5059271;28;20047;-88
2021/09/02 02:42:33;;;;;;;12.10;8.68;;;9.80;99.90;;;;;;5059298;28;20053;-89
2021/09/02 02:45:00;;;;;;;9.75;8.75;;;9.80;99.90;;;;;;5059044;28;20139;-88
2021/09/02 02:47:27;;;;;;;9.52;8.20;;;9.80;99.90;;;;;;5059344;28;20051;-88
2021/09/02 02:49:54;;;;;;;9.63;8.63;;;9.80;99.90;;;;;;5059096;28;20057;-88
2021/09/02 02:52:21;;;;;;;15.18;9.10;;;9.70;99.90;;;;;;5059091;28;20056;-88
2021/09/02 02:54:48;;;;;;;17.35;9.48;;;9.80;99.90;;;;;;5075999;28;20480;-89
2021/09/02 02:57:15;;;;;;;11.45;9.30;;;9.90;99.90;;;;;;5058668;28;20139;-89
2021/09/02 02:59:42;;;;;;;11.50;9.02;;;9.90;99.90;;;;;;5058826;28;20051;-89
2021/09/02 03:02:08;;;;;;;20.30;9.75;;;10.00;99.90;;;;;;5058765;28;20381;-88
2021/09/02 03:04:35;;;;;;;14.35;10.50;;;10.00;99.90;;;;;;5058561;28;20070;-89
2021/09/02 03:07:04;;;;;;;12.30;9.98;;;10.10;99.90;;;;;;5058478;28;20049;-89
2021/09/02 03:09:31;;;;;;;11.43;9.57;;;10.10;99.90;;;;;;5058602;28;20055;-89
2021/09/02 03:11:58;;;;;;;13.38;8.80;;;10.20;99.90;;;;;;5076056;28;20055;-89
2021/09/02 03:14:25;;;;;;;14.23;9.73;;;10.30;99.90;;;;;;5058280;28;20053;-89
2021/09/02 03:16:52;;;;;;;14.30;9.20;;;10.30;99.90;;;;;;5058347;28;20055;-89
2021/09/02 03:19:18;;;;;;;10.43;8.80;;;10.30;99.90;;;;;;5058856;28;20468;-89
2021/09/02 03:21:45;;;;;;;12.60;7.97;;;10.40;99.90;;;;;;5075987;28;20058;-88
2021/09/02 03:24:12;;;;;;;19.98;9.93;;;10.40;99.90;;;;;;5058263;28;20482;-89
2021/09/02 03:26:39;;;;;;;11.85;8.70;;;10.50;99.90;;;;;;5058198;28;20507;-89
2021/09/02 03:29:05;;;;;;;14.18;9.68;;;10.50;99.90;;;;;;5075560;28;20059;-89
2021/09/02 03:31:32;;;;;;;13.68;9.95;;;10.50;99.90;;;;;;5057979;28;20058;-88
2021/09/02 03:33:59;;;;;;;9.18;8.05;;;10.60;99.90;;;;;;5075779;28;20404;-89
2021/09/02 03:36:26;;;;;;;11.73;8.55;;;10.60;99.90;;;;;;5057725;28;20059;-89
2021/09/02 03:38:55;;;;;;;9.38;6.88;;;10.60;99.90;;;;;;5058462;28;20568;-89
2021/09/02 03:41:22;;;;;;;8.13;7.28;;;10.50;99.90;;;;;;5056988;28;20052;-88
2021/09/02 03:43:49;;;;;;;8.77;7.28;;;10.50;99.90;;;;;;5057954;28;20058;-89
2021/09/02 03:46:16;;;;;;;9.20;7.50;;;10.30;99.90;;;;;;5058381;28;20449;-89
2021/09/02 03:48:42;;;;;;;7.95;7.13;;;10.20;99.90;;;;;;5075990;28;20053;-89
2021/09/02 03:51:09;;;;;;;10.23;6.78;;;10.10;99.90;;;;;;5058081;28;20060;-89
2021/09/02 03:53:36;;;;;;;13.60;8.52;;;10.10;99.90;;;;;;5058333;28;20045;-89
2021/09/02 03:56:03;;;;;;;9.98;7.72;;;9.90;99.90;;;;;;5075112;28;20045;-88
2021/09/02 03:58:30;;;;;;;14.23;8.20;;;9.80;99.90;;;;;;5074536;28;20059;-88
2021/09/02 04:00:57;;;;;;;10.98;8.80;;;9.80;99.90;;;;;;5075543;28;20045;-89
2021/09/02 04:03:24;;;;;;;14.07;9.63;;;9.80;99.90;;;;;;5057991;28;20059;-89
2021/09/02 04:05:51;;;;;;;13.70;9.32;;;9.80;99.90;;;;;;5057750;28;20352;-89
2021/09/02 04:08:17;;;;;;;12.50;8.70;;;9.80;99.90;;;;;;5075693;28;20045;-89
2021/09/02 04:10:44;;;;;;;14.85;9.48;;;9.80;99.90;;;;;;5075204;28;20048;-89
2021/09/02 04:13:11;;;;;;;16.58;9.75;;;9.90;99.90;;;;;;5057938;28;20048;-89
2021/09/02 04:15:37;;;;;;;12.15;10.10;;;10.10;99.90;;;;;;5075009;28;20053;-89
2021/09/02 04:18:04;;;;;;;13.85;9.40;;;10.10;99.90;;;;;;5075337;28;20079;-88
2021/09/02 04:20:31;;;;;;;14.80;10.68;;;10.20;99.90;;;;;;5057504;28;20045;-89
2021/09/02 04:22:58;;;;;;;12.27;9.57;;;10.30;99.90;;;;;;5074757;28;20055;-88
2021/09/02 04:25:24;;;;;;;15.20;9.68;;;10.30;99.90;;;;;;5057477;28;20123;-88
2021/09/02 04:27:51;;;;;;;23.27;10.63;;;10.40;99.90;;;;;;5059165;28;20056;-88
2021/09/02 04:30:18;;;;;;;13.30;9.10;;;10.40;99.90;;;;;;5074970;28;20050;-89
2021/09/02 04:32:45;;;;;;;15.95;10.00;;;10.50;99.90;;;;;;5057282;28;20055;-89
2021/09/02 04:35:13;;;;;;;19.33;9.30;;;10.50;99.90;;;;;;5057337;28;20131;-88
2021/09/02 04:37:43;;;;;;;15.43;9.23;;;10.60;99.90;;;;;;5057284;28;20076;-88
2021/09/02 04:40:11;;;;;;;11.25;8.50;;;10.60;99.90;;;;;;5074509;28;20056;-88
2021/09/02 04:42:38;;;;;;;12.88;8.07;;;10.70;99.90;;;;;;5074726;28;20066;-89
2021/09/02 04:45:05;;;;;;;10.85;8.35;;;10.70;99.90;;;;;;5056937;28;20048;-88
2021/09/02 04:47:33;;;;;;;10.57;8.50;;;10.80;99.90;;;;;;5073750;28;20052;-88
2021/09/02 04:49:59;;;;;;;16.45;8.30;;;10.80;99.90;;;;;;5073928;28;20058;-89
2021/09/02 04:52:26;;;;;;;11.73;8.50;;;10.90;99.90;;;;;;5056252;28;20481;-89
2021/09/02 04:54:53;;;;;;;10.70;7.68;;;10.90;99.90;;;;;;5056273;28;20048;-89
2021/09/02 04:57:20;;;;;;;9.13;7.70;;;10.90;99.90;;;;;;5056592;28;20059;-88
2021/09/02 04:59:47;;;;;;;13.27;8.15;;;11.00;99.90;;;;;;5056337;28;20047;-88
2021/09/02 05:02:14;;;;;;;8.73;7.53;;;11.00;99.90;;;;;;5056566;28;20048;-89
2021/09/02 05:04:42;;;;;;;9.95;8.25;;;11.00;99.90;;;;;;5056074;28;20135;-89
2021/09/02 05:07:09;;;;;;;9.57;7.65;;;11.10;99.90;;;;;;5056427;28;20059;-89
2021/09/02 05:09:35;;;;;;;9.02;7.75;;;11.10;99.90;;;;;;5073804;28;20524;-89
2021/09/02 05:12:13;;;;;;;9.98;7.70;;;11.20;99.90;;;;;;5074037;28;20059;-89
2021/09/02 05:14:41;;;;;;;9.20;6.60;;;11.20;99.90;;;;;;5055931;28;20060;-88
2021/09/02 05:17:09;;;;;;;10.27;7.47;;;11.30;99.90;;;;;;5056238;28;20083;-88
2021/09/02 05:19:36;;;;;;;10.60;7.43;;;11.30;99.90;;;;;;5056333;28;20045;-89
2021/09/02 05:22:03;;;;;;;11.63;7.55;;;11.30;99.90;;;;;;5073854;28;20054;-89
2021/09/02 05:24:30;;;;;;;11.80;7.50;;;11.40;99.90;;;;;;5073743;28;20444;-89
2021/09/02 05:26:57;;;;;;;10.25;7.13;;;11.40;99.90;;;;;;5056169;28;20131;-89
2021/09/02 05:29:24;;;;;;;11.18;7.35;;;11.50;99.90;;;;;;5073667;28;20052;-88
2021/09/02 05:31:50;;;;;;;12.32;6.68;;;11.50;99.90;;;;;;5073522;28;20055;-89
2021/09/02 05:34:17;;;;;;;8.57;6.55;;;11.60;99.90;;;;;;5073499;28;20052;-89
2021/09/02 05:36:44;;;;;;;9.48;5.80;;;11.70;99.90;;;;;;5072205;28;20055;-89
2021/09/02 05:39:11;;;;;;;8.73;6.00;;;11.80;99.90;;;;;;5055708;28;20079;-88
2021/09/02 05:41:38;;;;;;;9.35;5.47;;;11.90;99.90;;;;;;5056101;28;20412;-88
2021/09/02 05:44:06;;;;;;;5.82;5.28;;;12.00;99.90;;;;;;5056168;28;20545;-88
2021/09/02 05:46:33;;;;;;;8.10;5.78;;;12.10;99.90;;;;;;5055811;28;20408;-88
2021/09/02 05:49:00;;;;;;;23.80;6.57;;;12.20;99.90;;;;;;5056150;28;20058;-88
2021/09/02 05:51:27;;;;;;;7.38;6.07;;;12.40;99.90;;;;;;5073193;28;20044;-88
2021/09/02 05:53:53;;;;;;;6.13;5.53;;;12.30;99.90;;;;;;5073307;28;20040;-88
2021/09/02 05:56:20;;;;;;;6.72;5.45;;;12.40;99.90;;;;;;5056003;28;20044;-89
2021/09/02 05:58:47;;;;;;;6.60;5.03;;;12.50;99.90;;;;;;5055495;28;20147;-88
2021/09/02 06:01:16;;;;;;;11.65;6.53;;;12.60;99.90;;;;;;5055790;28;20055;-88
2021/09/02 06:03:43;;;;;;;17.20;6.28;;;12.60;99.90;;;;;;5073045;28;20049;-87
2021/09/02 06:06:11;;;;;;;8.85;5.55;;;12.60;99.90;;;;;;5076533;28;20050;-88
2021/09/02 06:08:37;;;;;;;11.10;6.25;;;12.70;99.90;;;;;;5077158;28;20143;-88
2021/09/02 06:11:05;;;;;;;9.13;5.95;;;12.80;99.90;;;;;;5059594;28;20477;-89
2021/09/02 06:13:32;;;;;;;7.25;5.68;;;12.80;99.90;;;;;;5077496;28;20054;-89
2021/09/02 06:16:02;;;;;;;9.07;5.78;;;12.80;99.90;;;;;;5078065;28;20059;-88
2021/09/02 06:18:30;;;;;;;9.73;7.35;;;12.80;99.90;;;;;;5059987;28;20063;-89
2021/09/02 06:20:57;;;;;;;10.93;6.00;;;12.90;99.90;;;;;;5059221;28;20143;-88
2021/09/02 06:23:24;;;;;;;6.88;6.07;;;13.00;99.90;;;;;;5059108;28;20072;-89
2021/09/02 06:25:51;;;;;;;8.45;6.30;;;13.00;99.90;;;;;;5058056;28;20044;-89
2021/09/02 06:28:17;;;;;;;9.73;5.57;;;13.00;99.90;;;;;;5075434;28;20057;-88
2021/09/02 06:30:44;;;;;;;7.88;5.85;;;13.10;99.90;;;;;;5057759;28;20066;-88
2021/09/02 06:33:11;;;;;;;7.43;5.47;;;13.10;99.90;;;;;;5057402;28;20059;-89
2021/09/02 06:35:38;;;;;;;11.55;6.60;;;13.20;99.90;;;;;;5057724;28;20119;-88
2021/09/02 06:38:05;;;;;;;8.88;6.60;;;13.30;99.90;;;;;;5076760;28;20510;-88
2021/09/02 06:40:33;;;;;;;10.93;6.70;;;13.40;99.90;;;;;;5076897;28;20053;-88
2021/09/02 06:43:01;;;;;;;7.63;6.00;;;13.50;99.90;;;;;;5059474;28;20055;-88
2021/09/02 06:45:28;;;;;;;8.98;5.43;;;13.50;99.90;;;;;;5059344;28;20056;-88
2021/09/02 06:47:55;;;;;;;10.02;8.13;;;13.60;99.90;;;;;;5059283;28;20044;-88
2021/09/02 06:50:21;;;;;;;13.82;12.38;;;13.70;99.90;;;;;;5059433;28;20136;-89
2021/09/02 06:52:48;;;;;;;16.20;14.48;;;13.80;99.90;;;;;;5059099;28;20394;-88
2021/09/02 06:55:15;;;;;;;13.40;11.95;;;14.00;99.90;;;;;;5076622;28;20131;-88
2021/09/02 06:57:42;;;;;;;8.15;7.07;;;14.10;99.90;;;;;;5076710;28;20436;-88
2021/09/02 07:00:10;;;;;;;17.17;14.85;;;14.20;99.90;;;;;;5059330;28;20051;-88
2021/09/02 07:02:36;;;;;;;13.80;12.55;;;14.30;99.90;;;;;;5059009;28;20055;-88
2021/09/02 07:05:06;;;;;;;6.28;5.78;;;14.30;99.90;;;;;;5058853;28;20044;-88
2021/09/02 07:07:34;;;;;;;7.60;5.72;;;14.50;99.90;;;;;;5058795;28;20052;-88
2021/09/02 07:10:01;;;;;;;7.88;5.38;;;14.50;99.90;;;;;;5058726;28;20044;-88
2021/09/02 07:12:28;;;;;;;8.95;5.13;;;14.70;99.90;;;;;;5075322;28;20059;-87
2021/09/02 07:14:56;;;;;;;7.60;4.53;;;14.80;99.90;;;;;;5075465;28;20478;-87
2021/09/02 07:17:23;;;;;;;7.47;5.80;;;15.00;99.90;;;;;;5075974;28;20135;-88
2021/09/02 07:19:50;;;;;;;15.70;13.75;;;15.30;99.90;;;;;;5058484;28;20041;-88
2021/09/02 07:22:17;;;;;;;6.65;6.05;;;15.50;99.90;;;;;;5058504;28;20080;-88
2021/09/02 07:24:43;;;;;;;5.63;4.85;;;15.60;99.90;;;;;;5075687;28;20052;-88
2021/09/02 07:27:10;;;;;;;10.52;4.63;;;15.70;99.90;;;;;;5058553;28;20051;-88
2021/09/02 07:29:37;;;;;;;7.30;4.90;;;15.90;99.90;;;;;;5058071;28;20432;-88
2021/09/02 07:32:04;;;;;;;5.75;4.55;;;16.10;99.90;;;;;;5075535;28;20044;-88
2021/09/02 07:34:31;;;;;;;6.20;4.28;;;16.20;99.90;;;;;;5058157;28;20060;-88
2021/09/02 07:36:58;;;;;;;5.65;4.40;;;16.30;99.90;;;;;;5058170;28;20044;-88
2021/09/02 07:39:25;;;;;;;4.63;4.22;;;16.50;99.90;;;;;;5075580;28;20052;-88
2021/09/02 07:41:52;;;;;;;8.07;4.97;;;16.80;99.90;;;;;;5058223;28;20131;-88
2021/09/02 07:44:19;;;;;;;11.07;5.55;;;17.00;99.90;;;;;;5075554;28;20049;-88
2021/09/02 07:46:46;;;;;;;12.07;5.10;;;17.10;99.90;;;;;;5057684;28;20048;-88
2021/09/02 07:49:13;;;;;;;14.23;4.95;;;17.30;99.90;;;;;;5075562;28;20123;-85
2021/09/02 07:51:41;;;;;;;9.55;4.70;;;17.50;99.90;;;;;;5075674;28;20084;-86
2021/09/02 07:54:08;;;;;;;6.80;5.50;;;17.60;99.90;;;;;;5058274;28;20056;-88
2021/09/02 07:56:35;;;;;;;6.38;5.22;;;17.80;99.90;;;;;;5058005;28;20074;-88
2021/09/02 07:59:06;;;;;;;10.73;4.60;;;17.90;99.90;;;;;;5058529;28;20044;-88
2021/09/02 08:01:33;;;;;;;12.95;5.80;;;18.00;99.90;;;;;;5075234;28;20499;-85
2021/09/02 08:04:00;;;;;;;8.40;5.07;;;18.00;99.90;;;;;;5057777;28;20131;-85
2021/09/02 08:06:27;;;;;;;10.73;5.50;;;18.00;99.90;;;;;;5057542;28;20131;-87
2021/09/02 08:08:54;;;;;;;10.50;5.35;;;17.90;99.90;;;;;;5074894;28;20412;-86
2021/09/02 08:11:21;;;;;;;10.13;5.10;;;17.80;99.90;;;;;;5057340;28;20076;-86
2021/09/02 08:13:47;;;;;;;7.82;5.07;;;18.20;99.90;;;;;;5057275;28;20049;-86
2021/09/02 08:16:14;;;;;;;20.52;5.30;;;18.30;99.90;;;;;;5057326;28;20052;-87
2021/09/02 08:18:41;;;;;;;19.08;6.40;;;18.50;99.90;;;;;;5057449;28;20049;-86
2021/09/02 08:21:08;;;;;;;18.63;6.20;;;18.30;99.90;;;;;;5057353;28;20048;-86
2021/09/02 08:23:35;;;;;;;19.98;7.70;;;18.70;99.90;;;;;;5057099;28;20053;-86
2021/09/02 08:26:02;;;;;;;27.90;12.93;;;19.20;99.90;;;;;;5057209;28;20041;-85
2021/09/02 08:28:28;;;;;;;37.83;16.52;;;19.40;99.90;;;;;;5056797;28;20499;-87
2021/09/02 08:30:55;;;;;;;36.13;15.32;;;19.70;99.90;;;;;;5075089;28;20071;-86
2021/09/02 08:33:23;;;;;;;37.85;17.02;;;19.90;99.90;;;;;;5057456;28;20059;-87
2021/09/02 08:35:51;;;;;;;44.03;17.92;;;19.90;99.90;;;;;;5057448;28;20078;-89
2021/09/02 08:38:18;;;;;;;41.13;15.75;;;21.40;99.90;;;;;;5057282;28;20460;-85
2021/09/02 08:40:46;;;;;;;35.92;15.98;;;21.80;99.90;;;;;;5057046;28;20055;-86
2021/09/02 08:43:13;;;;;;;36.10;15.82;;;21.90;99.90;;;;;;5057208;28;20135;-85
2021/09/02 08:45:59;;;;;;;35.75;16.30;;;22.10;99.90;;;;;;5060138;28;20404;-86
2021/09/02 08:48:27;;;;;;;32.67;15.52;;;22.30;99.90;;;;;;5057103;28;20059;-85
2021/09/02 08:50:54;;;;;;;34.20;15.32;;;23.60;99.90;;;;;;5056854;28;20106;-86
2021/09/02 08:53:22;;;;;;;32.72;14.90;;;23.90;99.90;;;;;;5056981;28;20075;-86
2021/09/02 08:55:48;;;;;;;36.08;15.25;;;23.80;99.90;;;;;;5056800;28;20045;-87
2021/09/02 08:58:15;;;;;;;29.67;14.43;;;23.10;99.90;;;;;;5057072;28;20508;-85
2021/09/02 09:00:42;;;;;;;30.98;15.38;;;22.20;99.90;;;;;;5056824;28;20052;-85
2021/09/02 09:03:08;;;;;;;29.70;14.48;;;21.80;99.90;;;;;;5056793;28;20048;-86
2021/09/02 09:05:36;;;;;;;31.73;14.50;;;21.40;99.90;;;;;;5057019;28;20056;-86
2021/09/02 09:08:11;;;;;;;25.40;13.40;;;21.30;99.90;;;;;;5056826;28;20378;-87
2021/09/02 09:10:40;;;;;;;28.02;12.80;;;21.40;99.90;;;;;;5056607;28;20059;-86
2021/09/02 09:13:08;;;;;;;20.05;11.95;;;21.50;99.90;;;;;;5056500;28;20046;-85
2021/09/02 09:15:40;;;;;;;18.70;11.05;;;22.90;99.90;;;;;;5056684;28;20079;-86
2021/09/02 09:18:17;;;;;;;20.15;11.02;;;24.60;99.90;;;;;;5056771;28;20084;-89
2021/09/02 09:20:45;;;;;;;18.95;10.77;;;25.00;99.90;;;;;;5056358;28;20055;-86
2021/09/02 09:23:11;;;;;;;21.10;10.98;;;25.40;99.90;;;;;;5056578;28;20040;-87
2021/09/02 09:25:38;;;;;;;18.77;10.55;;;26.50;99.90;;;;;;5056408;28;20054;-87
2021/09/02 09:28:05;;;;;;;23.45;11.38;;;29.50;93.00;;;;;;5056444;28;20056;-87
2021/09/02 09:30:37;;;;;;;20.77;10.30;;;29.90;86.50;;;;;;5056347;28;20044;-87
2021/09/02 09:33:07;;;;;;;18.77;11.73;;;28.80;86.10;;;;;;5056373;28;20044;-87
2021/09/02 09:35:36;;;;;;;20.27;12.30;;;27.40;90.30;;;;;;5056400;28;20059;-86
2021/09/02 09:38:09;;;;;;;22.67;11.32;;;26.40;92.00;;;;;;5056247;28;20053;-86
2021/09/02 09:40:43;;;;;;;17.93;11.37;;;25.80;95.20;;;;;;5055419;28;20055;-86
2021/09/02 09:43:12;;;;;;;18.05;10.65;;;26.40;95.10;;;;;;5056197;28;20532;-86
2021/09/02 09:45:40;;;;;;;17.40;11.23;;;27.10;94.80;;;;;;5056123;28;20055;-86
2021/09/02 09:48:27;;;;;;;21.50;12.07;;;28.10;91.70;;;;;;5056240;28;20055;-86
2021/09/02 09:51:14;;;;;;;18.23;10.57;;;27.30;92.30;;;;;;5056279;28;20140;-86
2021/09/02 09:53:43;;;;;;;20.45;10.82;;;28.00;92.00;;;;;;5055955;28;20056;-87
2021/09/02 09:56:10;;;;;;;20.00;10.38;;;30.00;89.30;;;;;;5056069;28;20045;-86
2021/09/02 09:58:38;;;;;;;16.55;9.35;;;31.50;81.70;;;;;;5055769;28;20080;-86
2021/09/02 10:01:06;;;;;;;18.40;10.10;;;31.50;76.80;;;;;;5056097;28;20045;-86
2021/09/02 10:03:34;;;;;;;19.35;9.73;;;30.80;76.30;;;;;;5056792;28;20055;-86
2021/09/02 10:06:06;;;;;;;17.70;9.90;;;31.90;75.40;;;;;;5055898;28;20057;-86
2021/09/02 10:08:41;;;;;;;15.18;9.35;;;32.00;73.50;;;;;;5055946;28;20505;-85
2021/09/02 10:11:10;;;;;;;13.32;10.30;;;31.90;73.00;;;;;;5055916;28;20044;-86
2021/09/02 10:13:38;;;;;;;10.82;7.95;;;31.70;71.80;;;;;;5055724;28;20139;-86
2021/09/02 10:16:06;;;;;;;19.13;10.30;;;31.60;72.20;;;;;;5055977;28;20087;-86
2021/09/02 10:18:37;;;;;;;16.88;9.85;;;31.70;72.80;;;;;;5055751;28;20052;-86
2021/09/02 10:21:07;;;;;;;14.07;10.57;;;32.20;73.00;;;;;;5055820;28;20132;-86
2021/09/02 10:23:34;;;;;;;17.80;9.77;;;31.50;70.10;;;;;;5055672;28;20488;-86
2021/09/02 10:26:02;;;;;;;18.10;9.73;;;31.80;71.60;;;;;;5055694;28;20054;-86
2021/09/02 10:28:36;;;;;;;16.63;11.00;;;32.10;69.60;;;;;;5073066;28;20114;-85
2021/09/02 10:31:06;;;;;;;15.82;10.65;;;32.60;68.50;;;;;;5073074;28;20049;-86
2021/09/02 10:33:37;;;;;;;11.68;8.98;;;33.90;66.20;;;;;;5055568;28;20048;-86
2021/09/02 10:36:10;;;;;;;16.52;10.43;;;34.10;66.90;;;;;;5055600;28;20044;-85
2021/09/02 10:38:45;;;;;;;16.88;10.27;;;32.60;65.20;;;;;;5055557;28;20482;-86
2021/09/02 10:41:12;;;;;;;14.30;10.38;;;32.50;67.00;;;;;;5055612;28;20045;-87
2021/09/02 10:43:46;;;;;;;16.75;10.48;;;32.70;65.00;;;;;;5055501;28;20083;-87
2021/09/02 10:46:30;;;;;;;15.98;9.70;;;32.10;66.20;;;;;;5055336;28;20045;-87
2021/09/02 10:49:21;;;;;;;13.88;9.30;;;31.00;66.60;;;;;;5055540;28;20367;-86
2021/09/02 10:51:50;;;;;;;16.80;10.57;;;31.10;69.70;;;;;;5057928;28;20131;-85
2021/09/02 10:54:23;;;;;;;12.70;9.05;;;31.10;69.70;;;;;;5059172;28;20052;-86
2021/09/02 10:57:11;;;;;;;16.10;8.63;;;30.90;71.10;;;;;;5059169;28;20072;-87
2021/09/02 10:59:46;;;;;;;12.45;9.07;;;30.10;70.30;;;;;;5059418;28;20048;-88
2021/09/02 11:02:15;;;;;;;12.77;9.02;;;30.60;70.10;;;;;;5076477;28;20294;-87
2021/09/02 11:04:44;;;;;;;12.73;9.18;;;30.90;68.70;;;;;;5076501;28;20171;-87
2021/09/02 11:07:11;;;;;;;13.43;9.25;;;30.90;68.90;;;;;;5058983;28;20390;-86
2021/09/02 11:09:41;;;;;;;16.33;9.88;;;30.70;70.40;;;;;;5059753;28;20078;-87
2021/09/02 11:12:12;;;;;;;12.18;7.78;;;30.10;72.00;;;;;;5058880;28;20048;-86
2021/09/02 11:14:45;;;;;;;12.88;8.32;;;31.20;72.50;;;;;;5058679;28;20052;-87
2021/09/02 11:17:13;;;;;;;43.35;24.33;;;32.50;67.40;;;;;;5076313;28;20131;-87
2021/09/02 11:19:42;;;;;;;13.05;8.52;;;31.70;68.40;;;;;;5058689;28;20095;-86
2021/09/02 11:22:13;;;;;;;110.03;60.28;;;31.80;66.70;;;;;;5076711;28;20116;-85
2021/09/02 11:24:45;;;;;;;27.52;15.50;;;30.90;69.80;;;;;;5058474;28;20076;-84
2021/09/02 11:27:30;;;;;;;15.35;9.93;;;29.70;72.00;;;;;;5058411;28;20047;-85
2021/09/02 11:30:13;;;;;;;17.35;11.23;;;29.70;73.20;;;;;;5058229;28;20062;-86
2021/09/02 11:32:40;;;;;;;36.85;19.50;;;28.90;73.50;;;;;;5058384;28;20504;-85
2021/09/02 11:35:08;;;;;;;52.10;25.98;;;28.20;74.30;;;;;;5075936;28;20055;-85
2021/09/02 11:37:43;;;;;;;19.98;12.27;;;27.50;78.40;;;;;;5057726;28;20044;-86
2021/09/02 11:40:24;;;;;;;21.20;10.95;;;27.50;78.40;;;;;;5057920;28;20045;-85
2021/09/02 11:42:51;;;;;;;17.30;9.30;;;27.30;77.40;;;;;;5057994;28;20482;-84
2021/09/02 11:45:20;;;;;;;52.88;29.17;;;26.50;79.70;;;;;;5057834;28;20131;-85
2021/09/02 11:47:49;;;;;;;57.90;34.45;;;25.90;81.90;;;;;;5075453;28;20048;-86
2021/09/02 11:50:19;;;;;;;22.30;13.25;;;25.50;86.20;;;;;;5058203;28;20048;-85
2021/09/02 11:52:52;;;;;;;23.33;14.95;;;25.30;90.30;;;;;;5057838;28;20051;-85
2021/09/02 11:55:21;;;;;;;28.63;19.23;;;25.10;88.90;;;;;;5071570;28;20105;-88
2021/09/02 11:57:57;;;;;;;16.95;10.23;;;25.10;91.30;;;;;;5075316;28;20052;-85
2021/09/02 12:00:24;;;;;;;25.38;15.05;;;25.20;92.30;;;;;;5075171;28;20476;-85
2021/09/02 12:02:54;;;;;;;23.38;12.98;;;25.10;92.20;;;;;;5056406;28;20048;-85
2021/09/02 12:05:26;;;;;;;14.73;9.35;;;24.90;93.10;;;;;;5075214;28;20047;-86
2021/09/02 12:07:56;;;;;;;19.10;10.55;;;24.90;93.60;;;;;;5058068;28;20090;-85
2021/09/02 12:10:24;;;;;;;14.02;9.98;;;24.90;94.50;;;;;;5074983;28;20079;-84
2021/09/02 12:12:50;;;;;;;15.35;9.68;;;24.90;95.50;;;;;;5057543;28;20048;-86
2021/09/02 12:15:24;;;;;;;13.23;9.07;;;25.00;95.50;;;;;;5057005;28;20063;-84
2021/09/02 12:18:07;;;;;;;14.75;9.90;;;25.00;95.20;;;;;;5056837;28;20556;-84
2021/09/02 12:20:36;;;;;;;14.60;9.15;;;25.20;93.70;;;;;;5056621;28;20051;-84
2021/09/02 12:23:19;;;;;;;15.07;10.43;;;24.80;95.70;;;;;;5056755;28;20049;-88
2021/09/02 12:26:04;;;;;;;16.47;10.90;;;24.40;96.60;;;;;;5074844;28;20476;-84
2021/09/02 12:28:41;;;;;;;16.60;9.52;;;24.30;99.60;;;;;;5057270;28;20302;-85
2021/09/02 12:31:28;;;;;;;14.05;9.15;;;24.30;99.30;;;;;;5057178;28;20044;-85
2021/09/02 12:33:59;;;;;;;11.90;8.05;;;24.30;98.60;;;;;;5056901;28;20040;-85
2021/09/02 12:36:28;;;;;;;16.58;9.02;;;24.40;99.40;;;;;;5056686;28;20139;-85
2021/09/02 12:38:55;;;;;;;15.00;8.52;;;24.30;99.90;;;;;;5074433;28;20063;-86
2021/09/02 12:41:24;;;;;;;11.48;8.57;;;24.30;99.90;;;;;;5056795;28;20432;-85
2021/09/02 12:43:59;;;;;;;16.30;9.30;;;24.20;99.90;;;;;;5074247;28;20070;-86